METAR AND TAF INFORMATION
METAR FOR LGSA
ADDS - METARS form results

(1649 UTC 17 October 2018)
Data provider http://aviationweather.gov/metar/data/
 
METAR text: LGSA 171620Z 00000KT 9999 FEW025 19/17 Q1015
Conditions at: LGSA (SOUDA/KHANIA (AF, GR) observed 1620 UTC 17 October 2018
Temperature: 19.0°C (66°F)
Dewpoint: 17.0°C (63°F) [RH = 88%]
Pressure (altimeter): 29.97 inches Hg (1015.0 mb)
Winds: calm
Visibility: 6 or more miles (10+ km)
Ceiling: at least 12,000 feet AGL
Clouds: few clouds at 2500 feet AGL
Weather: no significant weather observed at this time

METAR text: LGSA 171550Z 00000KT 9999 FEW025 19/17 Q1015
Conditions at: LGSA (SOUDA/KHANIA (AF, GR) observed 1550 UTC 17 October 2018
Temperature: 19.0°C (66°F)
Dewpoint: 17.0°C (63°F) [RH = 88%]
Pressure (altimeter): 29.97 inches Hg (1015.0 mb)
Winds: calm
Visibility: 6 or more miles (10+ km)
Ceiling: at least 12,000 feet AGL
Clouds: few clouds at 2500 feet AGL
Weather: no significant weather observed at this time

Forecast for: LGSA (SOUDA/KHANIA (AF, GR)
Text: TAF LGSA 171100Z 1712/1812 VRB05KT 9999 FEW025 BKN035
Forecast period: 1200 UTC 17 October 2018 to 1200 UTC 18 October 2018
Forecast type: FROM: standard forecast or significant change
Winds: variable direction winds at 6 MPH (5 knots; 2.6 m/s)
Visibility: 6 or more miles 10+ km)
Ceiling: 3500 feet AGL
Clouds: few clouds at 2500 feet AGL
broken clouds at 3500 feet AGL
Weather: no significant weather forecast for this period

 AIRPORT MAP

 RUNWAY INFORMATION
Runway 11 Runway length 10982 ft Runway width 148 ft
Runway elevation 428 ft Runway displaced threshold 0 ft Runway heading 111
Runway 29 Runway length 10982 ft Runway width 148 ft
Runway elevation 490 ft Runway displaced threshold 0 ft Runway heading 291

 AIRPORT FREQUENCIES
Type A/G Name CHANIA RDO Frequency 563.7 MHZ
Type APP Name APP Frequency 118.125 MHZ
Type GND Name GND Frequency 121.7 MHZ
Type MISC Name RANGER BAS Frequency 25.24 MHZ
Type OPS Name BASE OPS Frequency 35.94 MHZ
Type PMSV Name PMSV METRO Frequency 35.94 MHZ
Type POST Name BULL PEN Frequency 27.895 MHZ
Type TWR Name TWR Frequency 121.1 MHZ

 AIRPORT NEAR NAVIGATION AIDS
Type TACAN Name Souda Frequency 111200 KHZ
Type VOR-DME Name Chania Frequency 108600 KHZ
Type NDB Name Chania Frequency 409 KHZ



Air Greece virtual AIrline - All rights reserved 2018 - Powered by Virtual Airlines Manager [v2.6.2]